Time;durP1;ratioP1;P1;durP2;ratioP2;P2;SDS_P1;SDS_P2;PMS_P1;PMS_P2;Temp;Humidity;BMP_temperature;BMP_pressure;BME280_temperature;BME280_humidity;BME280_pressure;Samples;Min_cycle;Max_cycle;Signal;HPM_P1;HPM_P2
2023/05/25 00:01:08;;;;;;;12.85;7.70;;;;;;;14.28;100.00;98842.87;4485665;32;20154;-66
2023/05/25 00:03:39;;;;;;;12.13;7.80;;;;;;;14.27;100.00;98843.03;4485678;31;20112;-66
2023/05/25 00:06:09;;;;;;;14.65;8.40;;;;;;;14.26;100.00;98844.00;4485836;31;20182;-66
2023/05/25 00:08:39;;;;;;;16.42;9.27;;;;;;;14.20;100.00;98848.09;4484280;32;20097;-66
2023/05/25 00:11:06;;;;;;;11.73;8.30;;;;;;;14.10;100.00;98853.50;4485341;31;20084;-66
2023/05/25 00:13:33;;;;;;;13.10;7.62;;;;;;;14.09;100.00;98853.66;4473683;31;20100;-66
2023/05/25 00:16:00;;;;;;;13.90;8.57;;;;;;;13.99;100.00;98844.06;4479263;32;20155;-66
2023/05/25 00:18:27;;;;;;;13.35;8.13;;;;;;;14.01;100.00;98841.28;4485477;32;20083;-66
2023/05/25 00:20:55;;;;;;;13.45;8.43;;;;;;;13.96;100.00;98849.66;4485608;32;20127;-66
2023/05/25 00:23:22;;;;;;;13.40;8.43;;;;;;;13.92;100.00;98843.03;4485489;32;20168;-66
2023/05/25 00:25:49;;;;;;;16.05;9.10;;;;;;;13.86;100.00;98842.84;4485485;31;20241;-66
2023/05/25 00:28:16;;;;;;;14.50;8.07;;;;;;;13.82;100.00;98842.31;4485536;32;20145;-66
2023/05/25 00:30:44;;;;;;;13.15;7.72;;;;;;;13.74;100.00;98837.03;4485628;31;20620;-66
2023/05/25 00:33:11;;;;;;;14.77;8.77;;;;;;;13.68;100.00;98833.19;4485419;31;20158;-66
2023/05/25 00:35:41;;;;;;;16.30;9.18;;;;;;;13.64;100.00;98839.75;4485443;31;20153;-66
2023/05/25 00:38:13;;;;;;;16.37;8.80;;;;;;;13.59;100.00;98842.03;4485790;31;20133;-66
2023/05/25 00:40:40;;;;;;;12.35;7.80;;;;;;;13.57;100.00;98838.72;4485601;31;20081;-66
2023/05/25 00:43:08;;;;;;;13.02;7.82;;;;;;;13.57;100.00;98854.53;4485244;31;20100;-66
2023/05/25 00:45:35;;;;;;;14.77;7.80;;;;;;;13.54;100.00;98858.28;4485582;32;20152;-66
2023/05/25 00:48:04;;;;;;;13.15;7.53;;;;;;;13.55;100.00;98856.47;4485379;31;20088;-66
2023/05/25 00:50:41;;;;;;;11.60;8.13;;;;;;;13.52;100.00;98855.00;4484010;32;20092;-66
2023/05/25 00:53:10;;;;;;;12.02;7.95;;;;;;;13.56;100.00;98866.84;4485470;31;20085;-66
2023/05/25 00:55:45;;;;;;;13.73;7.78;;;;;;;13.52;100.00;98864.66;4485342;31;20454;-67
2023/05/25 00:58:13;;;;;;;14.60;8.40;;;;;;;13.49;100.00;98868.47;4485347;32;20108;-66
2023/05/25 01:00:41;;;;;;;13.30;9.13;;;;;;;13.45;100.00;98857.37;4483896;32;20144;-66
2023/05/25 01:03:11;;;;;;;14.65;7.90;;;;;;;13.49;100.00;98855.31;4484117;32;20494;-66
2023/05/25 01:05:41;;;;;;;15.73;8.70;;;;;;;13.50;100.00;98864.81;4485470;31;20470;-66
2023/05/25 01:08:10;;;;;;;11.75;7.80;;;;;;;13.50;100.00;98862.19;4485466;31;20087;-66
2023/05/25 01:10:38;;;;;;;11.57;7.95;;;;;;;13.54;100.00;98860.09;4485668;31;20501;-66
2023/05/25 01:13:08;;;;;;;13.25;8.10;;;;;;;13.54;100.00;98866.19;4466701;32;20113;-66
2023/05/25 01:15:39;;;;;;;17.67;8.40;;;;;;;13.53;100.00;98869.78;4465937;32;20378;-66
2023/05/25 01:18:08;;;;;;;11.98;7.70;;;;;;;13.58;100.00;98864.06;4484014;32;20144;-66
2023/05/25 01:20:35;;;;;;;12.55;8.23;;;;;;;13.58;100.00;98870.16;4485206;31;20089;-66
2023/05/25 01:23:13;;;;;;;16.80;7.55;;;;;;;13.60;100.00;98868.19;4483955;32;20538;-67
2023/05/25 01:25:51;;;;;;;13.80;7.07;;;;;;;13.61;100.00;98867.22;4484104;32;20164;-66
2023/05/25 01:28:24;;;;;;;14.90;7.95;;;;;;;13.61;100.00;98867.22;4483862;32;20532;-66
2023/05/25 01:30:52;;;;;;;;;;;;;;;13.60;100.00;98870.00;4484276;32;20434;-66
2023/05/25 01:33:20;;;;;;;11.23;6.87;;;;;;;13.59;100.00;98879.69;4484101;32;19991;-66
2023/05/25 01:35:47;;;;;;;11.93;8.13;;;;;;;13.55;100.00;98882.78;4485041;31;20089;-66
2023/05/25 01:38:16;;;;;;;13.98;7.90;;;;;;;13.54;100.00;98887.25;4485088;31;20156;-66
2023/05/25 01:40:43;;;;;;;13.98;7.95;;;;;;;13.59;100.00;98882.31;4484839;32;20201;-66
2023/05/25 01:43:10;;;;;;;11.75;7.87;;;;;;;13.65;100.00;98879.06;4484943;32;20093;-66
2023/05/25 01:45:38;;;;;;;12.85;7.70;;;;;;;13.70;100.00;98888.31;4485066;31;20115;-67
2023/05/25 01:48:31;;;;;;;10.88;7.35;;;;;;;13.76;100.00;98885.06;4470703;32;20487;-66
2023/05/25 01:51:03;;;;;;;12.70;6.90;;;;;;;13.77;100.00;98881.47;4483664;32;20111;-66
2023/05/25 01:53:35;;;;;;;13.45;7.30;;;;;;;13.76;100.00;98888.56;4483641;32;20116;-66
2023/05/25 01:56:07;;;;;;;13.18;7.30;;;;;;;13.83;100.00;98891.38;4483683;32;20126;-67
2023/05/25 01:58:39;;;;;;;10.80;7.20;;;;;;;13.87;100.00;98891.88;4484778;31;20080;-66
2023/05/25 02:01:08;;;;;;;10.00;6.47;;;;;;;13.93;100.00;98892.12;4483386;32;20201;-66
2023/05/25 02:03:37;;;;;;;13.00;7.00;;;;;;;14.00;100.00;98885.25;4483408;32;20356;-66
2023/05/25 02:06:04;;;;;;;12.73;7.18;;;;;;;14.05;100.00;98889.19;4484930;31;20100;-67
2023/05/25 02:08:33;;;;;;;11.73;6.93;;;;;;;14.10;100.00;98889.56;4483352;32;20146;-67
2023/05/25 02:11:02;;;;;;;12.48;7.20;;;;;;;14.12;100.00;98884.97;4484706;31;20091;-67
2023/05/25 02:13:29;;;;;;;12.13;7.22;;;;;;;14.14;100.00;98890.88;4473319;31;20442;-67
2023/05/25 02:15:56;;;;;;;11.43;7.15;;;;;;;14.12;100.00;98882.31;4477598;32;20123;-66
2023/05/25 02:18:25;;;;;;;11.32;7.12;;;;;;;14.15;100.00;98885.47;4484579;31;20164;-66
2023/05/25 02:20:55;;;;;;;12.13;7.80;;;;;;;14.12;100.00;98885.78;4484464;32;20118;-66
2023/05/25 02:23:23;;;;;;;12.73;7.65;;;;;;;14.14;100.00;98891.72;4484802;32;20153;-67
2023/05/25 02:25:51;;;;;;;10.80;7.30;;;;;;;14.11;100.00;98893.84;4484375;32;20096;-66
2023/05/25 02:28:18;;;;;;;11.32;7.10;;;;;;;14.08;100.00;98891.50;4484606;31;20159;-66
2023/05/25 02:30:45;;;;;;;14.55;7.97;;;;;;;14.04;100.00;98898.09;4484346;32;20139;-66
2023/05/25 02:33:13;;;;;;;12.10;7.87;;;;;;;13.98;100.00;98889.00;4485131;32;20478;-67
2023/05/25 02:35:40;;;;;;;10.80;6.85;;;;;;;13.92;100.00;98892.25;4486355;31;20763;-67
2023/05/25 02:38:08;;;;;;;12.88;7.93;;;;;;;13.90;100.00;98892.41;4486686;31;20104;-66
2023/05/25 02:40:36;;;;;;;11.23;7.05;;;;;;;13.83;100.00;98892.19;4486182;32;20137;-66
2023/05/25 02:43:04;;;;;;;12.80;7.25;;;;;;;13.75;100.00;98889.53;4486393;32;20399;-67
2023/05/25 02:45:31;;;;;;;11.50;6.70;;;;;;;13.75;100.00;98904.50;4486449;32;20104;-66
2023/05/25 02:47:58;;;;;;;10.05;6.70;;;;;;;13.71;100.00;98908.41;4486526;32;20115;-67
2023/05/25 02:50:26;;;;;;;12.23;7.43;;;;;;;13.70;100.00;98904.13;4486618;32;20513;-67
2023/05/25 02:52:54;;;;;;;11.43;7.22;;;;;;;13.58;100.00;98909.66;4486212;32;20096;-67
2023/05/25 02:55:21;;;;;;;11.02;7.20;;;;;;;13.58;100.00;98901.75;4486234;31;20513;-67
2023/05/25 02:57:49;;;;;;;14.82;7.93;;;;;;;13.46;100.00;98905.59;4486523;31;20092;-67
2023/05/25 03:00:19;;;;;;;14.35;8.13;;;;;;;13.35;100.00;98913.72;4486389;32;20625;-67
2023/05/25 03:02:47;;;;;;;15.18;8.35;;;;;;;13.21;100.00;98910.59;4485243;32;20128;-66
2023/05/25 03:05:16;;;;;;;14.40;8.90;;;;;;;13.16;100.00;98918.13;4486342;31;20116;-66
2023/05/25 03:07:43;;;;;;;14.68;9.43;;;;;;;13.09;100.00;98919.69;4486384;32;20118;-66
2023/05/25 03:10:12;;;;;;;16.20;8.65;;;;;;;13.07;100.00;98917.22;4486350;32;20127;-66
2023/05/25 03:12:39;;;;;;;18.65;9.52;;;;;;;13.03;100.00;98925.56;4480194;31;20113;-66
2023/05/25 03:15:08;;;;;;;16.08;9.50;;;;;;;13.04;100.00;98917.53;4473739;32;20224;-66
2023/05/25 03:17:35;;;;;;;15.65;9.13;;;;;;;13.15;100.00;98921.72;4486314;31;20120;-66
2023/05/25 03:20:03;;;;;;;15.82;8.20;;;;;;;13.10;100.00;98927.44;4486030;32;20159;-66
2023/05/25 03:22:31;;;;;;;18.35;9.30;;;;;;;13.16;100.00;98930.44;4486252;32;20127;-66
2023/05/25 03:24:58;;;;;;;18.30;8.75;;;;;;;13.25;100.00;98926.94;4486018;31;20119;-67
2023/05/25 03:27:26;;;;;;;17.55;8.20;;;;;;;13.34;100.00;98923.44;4486444;31;20114;-67
2023/05/25 03:29:53;;;;;;;14.27;8.90;;;;;;;13.47;100.00;98921.25;4486060;31;20092;-66
2023/05/25 03:32:22;;;;;;;17.02;8.95;;;;;;;13.57;100.00;98920.34;4486021;32;20116;-66
2023/05/25 03:34:49;;;;;;;17.73;9.23;;;;;;;13.68;100.00;98924.53;4485962;31;20092;-66
2023/05/25 03:37:17;;;;;;;14.07;8.02;;;;;;;13.77;100.00;98926.22;4486299;31;20080;-67
2023/05/25 03:39:44;;;;;;;13.55;7.93;;;;;;;13.76;100.00;98922.78;4485827;32;20160;-66
2023/05/25 03:42:11;;;;;;;15.55;8.10;;;;;;;13.82;100.00;98921.31;4486110;32;20100;-66
2023/05/25 03:44:39;;;;;;;14.50;8.23;;;;;;;13.86;100.00;98924.50;4485221;32;20485;-66
2023/05/25 03:47:07;;;;;;;16.70;8.43;;;;;;;13.94;100.00;98922.72;4485946;32;20606;-67
2023/05/25 03:49:35;;;;;;;11.85;7.97;;;;;;;14.05;100.00;98928.72;4484811;32;20096;-67
2023/05/25 03:52:02;;;;;;;13.10;7.80;;;;;;;14.06;100.00;98927.75;4485868;31;20100;-66
2023/05/25 03:54:29;;;;;;;15.00;8.48;;;;;;;14.11;100.00;98933.34;4485778;31;20541;-66
2023/05/25 03:57:02;;;;;;;13.32;7.70;;;;;;;14.16;100.00;98937.19;4485574;32;20449;-67
2023/05/25 03:59:30;;;;;;;13.60;8.30;;;;;;;14.31;100.00;98942.69;4485486;31;20144;-66
2023/05/25 04:01:58;;;;;;;12.77;7.47;;;;;;;14.43;100.00;98938.00;4478214;31;20134;-67
2023/05/25 04:04:28;;;;;;;11.23;7.53;;;;;;;14.58;100.00;98940.84;4467903;32;20147;-67
2023/05/25 04:06:56;;;;;;;13.15;7.97;;;;;;;14.69;100.00;98945.06;4463341;32;20089;-67
2023/05/25 04:09:23;;;;;;;12.57;7.78;;;;;;;14.74;100.00;98942.75;4462944;32;20465;-67
2023/05/25 04:11:50;;;;;;;17.25;8.32;;;;;;;14.67;100.00;98942.56;4468394;32;20085;-67
2023/05/25 04:14:19;;;;;;;15.57;8.88;;;;;;;14.63;100.00;98951.78;4468412;32;20165;-68
2023/05/25 04:16:47;;;;;;;13.32;7.72;;;;;;;14.73;100.00;98946.34;4471248;32;20096;-68
2023/05/25 04:19:15;;;;;;;11.23;7.20;;;;;;;14.86;100.00;98957.28;4467642;32;20428;-67
2023/05/25 04:21:43;;;;;;;16.17;7.72;;;;;;;14.93;100.00;98952.22;4469672;32;20459;-67
2023/05/25 04:24:10;;;;;;;11.07;6.82;;;;;;;15.14;100.00;98961.47;4468465;32;20156;-66
2023/05/25 04:26:39;;;;;;;10.40;7.03;;;;;;;15.21;100.00;98960.66;4469102;32;20157;-67
2023/05/25 04:29:08;;;;;;;12.30;7.68;;;;;;;15.39;100.00;98963.19;4470087;32;20175;-67
2023/05/25 04:31:39;;;;;;;13.57;7.60;;;;;;;15.36;100.00;98963.50;4469040;32;20116;-67
2023/05/25 04:34:08;;;;;;;14.73;7.93;;;;;;;15.49;100.00;98976.25;4470066;32;20096;-67
2023/05/25 04:36:37;;;;;;;13.05;7.95;;;;;;;15.61;100.00;98974.09;4467388;32;20803;-67
2023/05/25 04:39:06;;;;;;;12.75;7.35;;;;;;;15.65;100.00;98971.94;4469106;32;20449;-65
2023/05/25 04:41:34;;;;;;;10.70;7.55;;;;;;;15.91;100.00;98966.53;4466561;32;20159;-67
2023/05/25 04:44:03;;;;;;;13.77;7.72;;;;;;;16.11;100.00;98964.37;4468189;32;20136;-67
2023/05/25 04:46:37;;;;;;;11.48;7.43;;;;;;;16.19;100.00;98968.81;4468874;32;20119;-67
2023/05/25 04:49:07;;;;;;;12.98;7.40;;;;;;;16.17;100.00;98965.50;4469737;32;20100;-67
2023/05/25 04:51:35;;;;;;;11.93;7.72;;;;;;;16.06;100.00;98964.84;4469748;32;20089;-66
2023/05/25 04:54:04;;;;;;;13.57;7.60;;;;;;;16.25;100.00;98966.31;4468126;32;20100;-67
2023/05/25 04:56:32;;;;;;;13.15;7.37;;;;;;;16.17;100.00;98970.78;4469340;32;20093;-67
2023/05/25 04:58:59;;;;;;;11.25;7.62;;;;;;;16.31;100.00;98970.91;4468459;32;20096;-67
2023/05/25 05:01:28;;;;;;;15.10;7.65;;;;;;;16.20;100.00;98970.44;4469957;32;20134;-67
2023/05/25 05:03:56;;;;;;;9.95;6.93;;;;;;;16.09;100.00;98972.47;4466300;32;20109;-67
2023/05/25 05:06:24;;;;;;;11.60;7.70;;;;;;;16.02;100.00;98973.28;4467654;32;20160;-67
2023/05/25 05:08:52;;;;;;;13.82;7.10;;;;;;;16.21;100.00;98982.66;4470667;32;20155;-67
2023/05/25 05:11:20;;;;;;;14.60;7.68;;;;;;;16.34;100.00;98977.69;4475393;31;20120;-66
2023/05/25 05:13:48;;;;;;;10.63;7.00;;;;;;;16.47;100.00;98979.78;4468098;32;20100;-68
2023/05/25 05:16:16;;;;;;;11.40;7.32;;;;;;;16.83;100.00;98979.34;4469528;32;20104;-66
2023/05/25 05:18:43;;;;;;;12.85;7.90;;;;;;;17.15;100.00;98982.84;4468592;32;20100;-66
2023/05/25 05:21:10;;;;;;;12.00;6.97;;;;;;;17.24;100.00;98994.22;4464315;32;20788;-66
2023/05/25 05:23:38;;;;;;;13.25;7.07;;;;;;;17.40;100.00;98994.13;4466551;32;20119;-66
2023/05/25 05:26:09;;;;;;;18.42;10.23;;;;;;;17.28;100.00;98992.88;4467750;32;20584;-67
2023/05/25 05:28:37;;;;;;;17.52;8.48;;;;;;;17.23;100.00;98992.56;4465569;32;20138;-67
2023/05/25 05:31:06;;;;;;;16.50;8.68;;;;;;;17.28;100.00;98985.75;4465228;32;20157;-67
2023/05/25 05:33:33;;;;;;;14.02;8.73;;;;;;;17.32;100.00;98984.41;4461665;32;20115;-67
2023/05/25 05:36:02;;;;;;;12.52;7.57;;;;;;;17.29;100.00;98989.22;4467106;32;20104;-67
2023/05/25 05:38:29;;;;;;;12.52;9.10;;;;;;;17.28;100.00;98987.59;4465725;32;20463;-67
2023/05/25 05:40:57;;;;;;;15.60;9.38;;;;;;;17.32;100.00;98997.66;4468664;32;20143;-65
2023/05/25 05:43:24;;;;;;;15.70;9.68;;;;;;;17.09;100.00;98992.31;4466339;32;20084;-67
2023/05/25 05:45:52;;;;;;;16.73;9.02;;;;;;;17.08;100.00;98990.66;4467643;32;20105;-67
2023/05/25 05:48:19;;;;;;;15.48;9.70;;;;;;;17.17;100.00;98994.09;4466578;32;20088;-67
2023/05/25 05:50:46;;;;;;;16.77;9.25;;;;;;;16.91;100.00;98991.72;4468221;32;20115;-67
2023/05/25 05:53:14;;;;;;;14.93;9.35;;;;;;;16.78;100.00;98993.09;4459746;32;20116;-66
2023/05/25 05:55:43;;;;;;;14.52;9.70;;;;;;;16.84;100.00;98992.41;4460909;32;20101;-66
2023/05/25 05:58:10;;;;;;;19.08;10.40;;;;;;;16.75;100.00;98993.44;4458360;32;20123;-68
2023/05/25 06:00:38;;;;;;;16.98;10.60;;;;;;;16.81;100.00;99005.97;4461045;32;20213;-66
2023/05/25 06:03:05;;;;;;;17.80;9.82;;;;;;;16.79;100.00;99009.78;4461587;32;20115;-67
2023/05/25 06:05:33;;;;;;;16.48;10.18;;;;;;;16.67;100.00;99004.88;4463938;32;20803;-67
2023/05/25 06:08:00;;;;;;;18.05;11.00;;;;;;;16.61;100.00;99010.03;4460649;32;20131;-67
2023/05/25 06:10:28;;;;;;;19.10;10.45;;;;;;;16.50;100.00;99008.53;4462626;32;20160;-66
2023/05/25 06:12:55;;;;;;;16.87;9.95;;;;;;;16.65;100.00;99006.03;4461596;32;20077;-67
2023/05/25 06:15:23;;;;;;;20.48;9.60;;;;;;;16.52;100.00;99011.00;4458626;32;20123;-65
2023/05/25 06:17:51;;;;;;;15.82;9.65;;;;;;;16.80;100.00;99020.19;4461245;32;20179;-67
2023/05/25 06:20:19;;;;;;;19.48;11.45;;;;;;;16.79;100.00;99015.06;4458537;32;20177;-67
2023/05/25 06:22:47;;;;;;;18.10;9.55;;;;;;;17.03;100.00;99016.81;4459697;32;20188;-67
2023/05/25 06:25:15;;;;;;;20.00;10.73;;;;;;;16.97;100.00;99014.88;4458681;32;20142;-67
2023/05/25 06:27:42;;;;;;;19.62;10.57;;;;;;;16.98;100.00;99017.34;4458480;32;20458;-67
2023/05/25 06:30:11;;;;;;;23.23;9.90;;;;;;;16.92;100.00;99015.38;4461202;32;20800;-67
2023/05/25 06:32:38;;;;;;;15.98;10.13;;;;;;;17.08;100.00;99014.50;4454875;32;20101;-67
2023/05/25 06:35:08;;;;;;;16.40;10.27;;;;;;;17.15;100.00;99017.25;4456669;32;20164;-66
2023/05/25 06:37:36;;;;;;;19.15;10.10;;;;;;;17.22;100.00;99023.53;4458246;32;20448;-67
2023/05/25 06:40:09;;;;;;;21.58;10.10;;;;;;;17.31;100.00;99024.31;4459015;32;20096;-65
2023/05/25 06:42:36;;;;;;;14.98;9.70;;;;;;;17.32;100.00;99026.78;4457443;32;20156;-65
2023/05/25 06:45:05;;;;;;;18.10;8.93;;;;;;;17.22;100.00;99028.00;4463678;32;20108;-66
2023/05/25 06:47:32;;;;;;;18.80;9.30;;;;;;;17.25;100.00;99027.66;4460239;32;22055;-66
2023/05/25 06:50:00;;;;;;;16.25;9.68;;;;;;;17.44;100.00;99034.31;4455200;32;20126;-66
2023/05/25 06:52:27;;;;;;;14.93;8.95;;;;;;;17.51;100.00;99030.78;4455889;32;20191;-65
2023/05/25 06:54:55;;;;;;;17.08;9.13;;;;;;;17.69;100.00;99030.50;4460144;32;20139;-65
2023/05/25 06:57:23;;;;;;;17.23;9.70;;;;;;;17.74;100.00;99035.28;4460600;32;20104;-67
2023/05/25 06:59:50;;;;;;;15.25;9.18;;;;;;;17.75;100.00;99031.63;4459058;32;20485;-66
2023/05/25 07:02:19;;;;;;;13.73;8.45;;;;;;;17.74;100.00;99032.63;4453278;32;20157;-63
2023/05/25 07:04:46;;;;;;;15.35;9.30;;;;;;;17.79;100.00;99032.94;4450668;32;20128;-63
2023/05/25 07:07:13;;;;;;;19.85;10.15;;;;;;;17.83;100.00;99042.16;4458248;32;20124;-66
2023/05/25 07:09:41;;;;;;;16.17;8.77;;;;;;;17.89;100.00;99038.00;4455138;32;20156;-67
2023/05/25 07:12:09;;;;;;;15.70;9.35;;;;;;;17.96;100.00;99030.19;4456332;32;20219;-66
2023/05/25 07:14:37;;;;;;;16.85;9.43;;;;;;;18.05;100.00;99039.72;4458091;32;20218;-68
2023/05/25 07:17:05;;;;;;;14.50;9.10;;;;;;;18.09;100.00;99041.84;4459104;32;20166;-68
2023/05/25 07:23:03;;;;;;;14.00;9.05;;;;;;;18.25;100.00;99046.16;4451247;32;20280;-66
2023/05/25 07:25:31;;;;;;;13.23;8.13;;;;;;;18.22;100.00;99045.69;4463657;32;20104;-68
2023/05/25 07:27:58;;;;;;;16.60;9.10;;;;;;;18.23;100.00;99050.81;4459930;32;20175;-68
2023/05/25 07:33:55;;;;;;;16.33;9.30;;;;;;;18.28;100.00;99050.28;4457444;32;20123;-67
2023/05/25 07:36:23;;;;;;;16.12;9.65;;;;;;;18.29;100.00;99046.63;4459375;32;20108;-68
2023/05/25 07:38:51;;;;;;;15.38;8.80;;;;;;;18.44;100.00;99044.00;4459739;32;20127;-68
2023/05/25 07:41:18;;;;;;;15.05;8.50;;;;;;;18.65;100.00;99045.09;4458666;32;20813;-68
2023/05/25 07:43:46;;;;;;;20.70;9.35;;;;;;;18.83;100.00;99047.41;4457876;32;20609;-68
2023/05/25 07:46:16;;;;;;;16.25;9.10;;;;;;;18.76;100.00;99047.31;4460353;32;20085;-68
2023/05/25 07:48:43;;;;;;;17.08;10.02;;;;;;;18.90;100.00;99048.34;4463185;32;20469;-68
2023/05/25 07:51:10;;;;;;;14.52;9.20;;;;;;;18.91;100.00;99053.47;4458083;32;20142;-68
2023/05/25 07:53:38;;;;;;;14.82;8.43;;;;;;;18.84;100.00;99044.56;4460711;32;20122;-66
2023/05/25 07:56:05;;;;;;;13.23;8.68;;;;;;;18.91;100.00;99057.94;4458164;32;20128;-66
2023/05/25 07:58:36;;;;;;;13.13;8.85;;;;;;;19.18;100.00;99051.13;4461017;32;20104;-66
2023/05/25 08:01:04;;;;;;;13.82;8.15;;;;;;;19.12;100.00;99052.72;4459076;32;20462;-66
2023/05/25 08:03:31;;;;;;;19.55;8.68;;;;;;;19.15;100.00;99057.66;4465843;32;20476;-66
2023/05/25 08:06:15;;;;;;;15.02;9.30;;;;;;;19.31;100.00;99056.59;4461591;32;20101;-65
2023/05/25 08:08:43;;;;;;;13.95;7.90;;;;;;;19.34;100.00;99055.41;4458813;32;20541;-66
2023/05/25 08:11:11;;;;;;;12.77;8.38;;;;;;;19.33;100.00;99049.28;4455816;32;20153;-66
2023/05/25 08:13:38;;;;;;;16.17;8.50;;;;;;;19.45;100.00;99051.44;4457526;32;20120;-65
2023/05/25 08:16:05;;;;;;;14.48;9.57;;;;;;;19.58;100.00;99056.09;4456660;32;20210;-64
2023/05/25 08:18:32;;;;;;;12.30;8.27;;;;;;;19.47;100.00;99057.38;4457993;32;20089;-65
2023/05/25 08:21:00;;;;;;;15.55;7.70;;;;;;;19.66;100.00;99062.09;4458228;32;20097;-67
2023/05/25 08:23:28;;;;;;;13.32;8.23;;;;;;;19.73;100.00;99053.38;4460114;32;20164;-66
2023/05/25 08:25:55;;;;;;;10.40;7.20;;;;;;;19.63;100.00;99059.81;4459655;32;20125;-66
2023/05/25 08:28:23;;;;;;;12.30;8.13;;;;;;;19.63;100.00;99057.16;4458093;32;20112;-66
2023/05/25 08:30:51;;;;;;;11.85;8.00;;;;;;;19.94;100.00;99053.41;4464535;32;20096;-66
2023/05/25 08:33:18;;;;;;;12.05;7.10;;;;;;;20.18;100.00;99057.50;4466896;32;20145;-66
2023/05/25 08:35:48;;;;;;;12.82;7.32;;;;;;;20.44;100.00;99068.53;4464943;32;20122;-65
2023/05/25 08:38:16;;;;;;;11.77;7.20;;;;;;;20.29;100.00;99064.13;4465116;32;20099;-67
2023/05/25 08:40:44;;;;;;;9.48;6.87;;;;;;;20.43;100.00;99059.72;4465844;32;20124;-68
2023/05/25 08:43:11;;;;;;;15.38;7.82;;;;;;;20.74;100.00;99062.03;4466752;32;20112;-67
2023/05/25 08:45:39;;;;;;;10.50;7.05;;;;;;;20.84;100.00;99064.31;4465555;32;20124;-67
2023/05/25 08:48:13;;;;;;;;;;;;;;;20.94;100.00;99065.78;4463129;32;20134;-67
2023/05/25 08:51:00;;;;;;;9.77;6.80;;;;;;;20.68;100.00;99070.78;4462759;32;19998;-67
2023/05/25 08:53:30;;;;;;;10.43;7.30;;;;;;;20.90;100.00;99066.19;4459233;32;20176;-68
2023/05/25 08:56:26;;;;;;;13.75;6.80;;;;;;;21.01;100.00;99067.47;4462263;32;20081;-67
2023/05/25 08:59:01;;;;;;;10.38;6.40;;;;;;;21.25;100.00;99068.00;4463318;32;20498;-67
2023/05/25 09:01:37;;;;;;;10.02;6.78;;;;;;;21.47;100.00;99060.69;4464796;32;20511;-67
2023/05/25 09:04:05;;;;;;;10.02;6.87;;;;;;;21.35;100.00;99075.62;4460166;32;20088;-66
2023/05/25 09:06:35;;;;;;;10.75;7.07;;;;;;;21.52;100.00;99066.28;4461216;32;20547;-67
2023/05/25 09:09:03;;;;;;;10.30;6.50;;;;;;;21.69;100.00;99077.38;4457216;32;20093;-67
2023/05/25 09:11:30;;;;;;;13.45;7.10;;;;;;;21.54;100.00;99071.41;4460428;32;20105;-67
2023/05/25 09:14:07;;;;;;;13.98;7.03;;;;;;;21.57;100.00;99071.00;4456222;32;20129;-67
2023/05/25 09:16:39;;;;;;;10.13;6.95;;;;;;;21.65;100.00;99070.84;4457533;32;20160;-67
2023/05/25 09:19:06;;;;;;;9.40;6.62;;;;;;;21.37;100.00;99065.59;4459409;32;20153;-67
2023/05/25 09:21:33;;;;;;;9.75;6.80;;;;;;;21.49;100.00;99065.84;4454810;32;20089;-66
2023/05/25 09:24:01;;;;;;;13.18;7.12;;;;;;;21.58;100.00;99062.00;4448416;32;20159;-67
2023/05/25 09:26:29;;;;;;;13.15;8.82;;;;;;;21.61;100.00;99067.72;4451730;32;20104;-68
2023/05/25 09:28:57;;;;;;;10.50;7.12;;;;;;;21.64;100.00;99077.19;4450339;32;20127;-66
2023/05/25 09:31:24;;;;;;;8.73;6.50;;;;;;;21.71;100.00;99075.34;4459429;32;20448;-68
2023/05/25 09:33:58;;;;;;;11.68;6.82;;;;;;;22.41;100.00;99076.88;4458462;32;20499;-67
2023/05/25 09:36:26;;;;;;;12.48;7.90;;;;;;;22.42;100.00;99078.50;4458693;32;20109;-66
2023/05/25 09:38:55;;;;;;;9.38;6.72;;;;;;;;;;4459703;32;20092;-64
2023/05/25 09:41:26;;;;;;;12.55;7.00;;;;;;;22.00;100.00;99078.69;4459931;32;20433;-67
2023/05/25 09:43:54;;;;;;;11.63;6.95;;;;;;;21.72;100.00;99087.66;4459289;32;20167;-65
2023/05/25 09:46:38;;;;;;;16.20;8.50;;;;;;;21.70;100.00;99081.69;4458405;32;20508;-65
2023/05/25 09:49:09;;;;;;;8.77;6.72;;;;;;;21.89;100.00;99081.94;4457774;32;20124;-65
2023/05/25 09:51:37;;;;;;;11.15;7.03;;;;;;;21.72;100.00;99068.97;4459225;32;20673;-64
2023/05/25 09:54:08;;;;;;;9.75;6.85;;;;;;;21.90;100.00;99076.41;4459204;32;20162;-67
2023/05/25 09:56:36;;;;;;;14.10;8.02;;;;;;;22.05;100.00;99073.53;4461293;32;20108;-65
2023/05/25 09:59:04;;;;;;;8.68;6.37;;;;;;;22.35;100.00;99083.00;4461009;32;78934;-67
2023/05/25 10:01:32;;;;;;;12.02;6.28;;;;;;;22.11;100.00;99080.72;4461549;32;20754;-64
2023/05/25 10:04:00;;;;;;;10.32;6.62;;;;;;;21.74;97.45;99084.78;4467802;32;20122;-67
2023/05/25 10:06:36;;;;;;;9.18;6.85;;;;;;;21.90;99.24;99087.06;4463547;32;20163;-67
2023/05/25 10:09:05;;;;;;;11.55;7.05;;;;;;;22.15;99.13;99083.81;4464074;32;20165;-67
2023/05/25 10:11:35;;;;;;;8.02;5.70;;;;;;;21.95;98.74;99083.78;4465420;32;20123;-67
2023/05/25 10:14:05;;;;;;;11.82;5.30;;;;;;;22.30;96.87;99081.78;4460028;32;20097;-67
2023/05/25 10:16:33;;;;;;;9.70;6.53;;;;;;;22.46;97.13;99083.22;4468032;32;20092;-68
2023/05/25 10:19:11;;;;;;;7.10;5.50;;;;;;;22.18;91.89;99072.75;4464371;32;20115;-68
2023/05/25 10:21:40;;;;;;;8.50;5.70;;;;;;;22.53;91.57;99075.22;4458822;32;20135;-68
2023/05/25 10:24:20;;;;;;;9.10;5.68;;;;;;;22.27;93.30;99060.00;4459845;32;20437;-69
2023/05/25 10:26:53;;;;;;;8.20;5.22;;;;;;;22.42;90.65;99068.66;4458611;32;20157;-67
2023/05/25 10:29:23;;;;;;;8.35;6.40;;;;;;;22.68;85.71;99070.47;4461322;32;20422;-68
2023/05/25 10:31:52;;;;;;;7.03;5.07;;;;;;;22.96;90.49;99057.84;4461273;32;20156;-68
2023/05/25 10:34:20;;;;;;;12.65;6.12;;;;;;;23.01;90.22;99061.53;4464310;32;20577;-67
2023/05/25 10:36:48;;;;;;;6.93;5.47;;;;;;;23.14;89.36;99054.53;4464458;32;20093;-67
2023/05/25 10:39:16;;;;;;;7.85;5.85;;;;;;;23.05;84.39;99056.59;4467623;32;20156;-66
2023/05/25 10:41:43;;;;;;;9.75;5.57;;;;;;;23.04;89.05;99060.28;4463871;32;20100;-67
2023/05/25 10:44:11;;;;;;;6.78;5.15;;;;;;;23.03;86.76;99054.13;4464531;32;20128;-66
2023/05/25 10:46:39;;;;;;;6.65;4.97;;;;;;;22.93;91.71;99050.25;4457691;32;20453;-66
2023/05/25 10:49:06;;;;;;;9.15;4.55;;;;;;;23.31;85.65;99053.00;4454487;32;20167;-66
2023/05/25 10:51:40;;;;;;;8.65;5.05;;;;;;;23.72;81.57;99045.59;4463574;32;20096;-66
2023/05/25 10:54:07;;;;;;;11.00;5.22;;;;;;;23.36;83.70;99055.87;4462323;32;20380;-66
2023/05/25 10:56:34;;;;;;;6.20;4.70;;;;;;;23.09;81.32;99043.63;4456776;32;20104;-66
2023/05/25 10:59:02;;;;;;;7.43;4.53;;;;;;;23.21;82.26;99040.09;4465410;32;20088;-66
2023/05/25 11:01:32;;;;;;;8.25;4.62;;;;;;;23.45;83.74;99050.28;4465010;32;20119;-66
2023/05/25 11:04:08;;;;;;;8.68;4.85;;;;;;;23.29;81.59;99041.72;4466025;32;20160;-66
2023/05/25 11:06:39;;;;;;;5.20;4.45;;;;;;;23.51;79.71;99044.91;4466066;32;20482;-66
2023/05/25 11:09:07;;;;;;;5.47;4.35;;;;;;;23.81;77.64;99041.59;4466010;32;21026;-65
2023/05/25 11:11:44;;;;;;;5.95;4.82;;;;;;;24.02;80.47;99045.00;4457632;32;20136;-66
2023/05/25 11:14:22;;;;;;;10.85;5.15;;;;;;;24.14;76.52;99035.22;4463758;32;20105;-66
2023/05/25 11:17:14;;;;;;;6.15;4.90;;;;;;;23.63;79.84;99036.19;4464319;32;20127;-67
2023/05/25 11:19:47;;;;;;;6.28;4.93;;;;;;;23.13;82.53;99034.19;4463643;32;20092;-67
2023/05/25 11:22:30;;;;;;;8.35;4.93;;;;;;;23.07;80.60;99026.97;4460614;32;20112;-67
2023/05/25 11:24:58;;;;;;;8.90;5.53;;;;;;;23.10;81.66;99032.75;4455200;32;20100;-66
2023/05/25 11:27:27;;;;;;;7.47;4.82;;;;;;;23.25;83.26;99026.31;4459020;32;20168;-66
2023/05/25 11:29:56;;;;;;;7.18;4.25;;;;;;;23.37;80.11;99032.63;4459532;32;20164;-67
2023/05/25 11:32:25;;;;;;;7.47;4.93;;;;;;;23.24;82.41;99024.66;4460533;32;20097;-65
2023/05/25 11:34:53;;;;;;;8.40;4.80;;;;;;;23.25;83.67;99020.97;4465588;32;20494;-65